CYLD

Details ICAO CYLD (YLD)
Name CHAPLEAU
Region Canada
Timezone America/Toronto (UTC-5.0)
Plans Departing 1
Arriving 2
Stats Elevation 1,470 ft / 448 m (AMSL)
Location 47.820903° -83.349792°
Runways 2
Magnetic Variation 8.705° W
Sunrise 2017-12-16 13:18:08 UTC / 2017-12-16 08:18:08 Local
Sunset 2017-12-16 21:42:55 UTC / 2017-12-16 16:42:55 Local
Advertisement - Login to hide

Runways

ID Width Length Bearing (true) Bearing (mag) Surface Threshold Offset Overrun Length
05 75 ft / 23 m 3,011 ft / 918 m 39.26° 47.96° Asphalt 0 ft / 0 m 0 ft / 0 m
10 100 ft / 30 m 4,972 ft / 1,516 m 92.33° 101.03° Asphalt 0 ft / 0 m 0 ft / 0 m
23 75 ft / 23 m 3,011 ft / 918 m 219.27° 227.97° Asphalt 0 ft / 0 m 0 ft / 0 m
28 100 ft / 30 m 4,972 ft / 1,516 m 272.34° 281.04° Asphalt 0 ft / 0 m 0 ft / 0 m

Map

Weather


0- 5 10 15 20 25 30 35+ Temperature / ° C

Clouds and Precipitation
Forecast for 2017-12-17 00:00 UTC. Updated 2 minutes ago

Ground ~20,000 ft ~40,000 ft Winds

METAR

CYLD 161900Z 36005KT 15SM SCT020 M21/M26 A3004 RMK SC4 SLP229

TAF

TAF CYLD 161238Z 1613/1701 32005KT P6SM SKC FM161800 02006KT P6SM SCT030 RMK NXT FCST BY 162000Z

Frequencies

Unicom 122.80 MHz CTAF/UNICOM
Warning: Do not use this data for real-world aviation or navigation. No guarantee of current accuracy is given.